Time;durP1;ratioP1;P1;durP2;ratioP2;P2;SDS_P1;SDS_P2;PMS_P1;PMS_P2;Temp;Humidity;BMP_temperature;BMP_pressure;BME280_temperature;BME280_humidity;BME280_pressure;Samples;Min_cycle;Max_cycle;Signal;HPM_P1;HPM_P2
2022/09/30 00:00:57;;;;;;;5.90;2.05;;;21.60;53.20;;;;;;5054583;28;20469;-56
2022/09/30 00:03:23;;;;;;;2.95;1.50;;;21.60;53.20;;;;;;5052387;28;20025;-55
2022/09/30 00:05:58;;;;;;;4.53;1.48;;;21.60;53.20;;;;;;5054409;28;20040;-56
2022/09/30 00:08:24;;;;;;;2.83;1.50;;;21.60;53.20;;;;;;5054252;28;20027;-54
2022/09/30 00:11:06;;;;;;;3.35;1.77;;;21.60;53.20;;;;;;5054680;28;20108;-56
2022/09/30 00:13:34;;;;;;;6.47;2.33;;;21.60;53.20;;;;;;5046803;28;20025;-55
2022/09/30 00:16:00;;;;;;;3.00;1.40;;;21.60;53.10;;;;;;5038534;28;20037;-55
2022/09/30 00:18:27;;;;;;;2.63;1.52;;;21.60;53.10;;;;;;5055886;28;20040;-56
2022/09/30 00:20:53;;;;;;;3.53;1.80;;;21.60;53.20;;;;;;5049627;28;20025;-55
2022/09/30 00:23:20;;;;;;;3.22;1.75;;;21.60;53.20;;;;;;5051176;28;20093;-54
2022/09/30 00:25:47;;;;;;;4.50;1.67;;;21.60;53.10;;;;;;5051562;28;20029;-56
2022/09/30 00:28:13;;;;;;;2.88;1.75;;;21.60;53.10;;;;;;5054840;28;20056;-45
2022/09/30 00:30:38;;;;;;;2.97;1.40;;;21.60;53.10;;;;;;5053807;28;20037;-55
2022/09/30 00:33:04;;;;;;;3.80;1.45;;;21.60;53.10;;;;;;5056110;28;20045;-55
2022/09/30 00:35:30;;;;;;;4.25;2.05;;;21.60;53.10;;;;;;5034669;28;20466;-56
2022/09/30 00:37:55;;;;;;;3.92;1.65;;;21.60;53.00;;;;;;5061728;28;20037;-56
2022/09/30 00:40:21;;;;;;;3.05;1.88;;;21.60;53.60;;;;;;5053813;28;20025;-55
2022/09/30 00:42:48;;;;;;;6.95;2.17;;;21.60;53.70;;;;;;5063352;28;20536;-54
2022/09/30 00:45:16;;;;;;;1.98;1.15;;;21.60;53.00;;;;;;5053780;28;20394;-46
2022/09/30 00:47:45;;;;;;;2.75;1.52;;;21.60;53.00;;;;;;5055378;28;20069;-54
2022/09/30 00:50:33;;;;;;;3.28;1.77;;;21.60;53.00;;;;;;5063627;28;20028;-56
2022/09/30 00:53:03;;;;;;;2.80;1.50;;;21.60;53.00;;;;;;5055916;28;20036;-56
2022/09/30 00:55:57;;;;;;;2.25;1.55;;;21.60;53.00;;;;;;5051554;28;20044;-56
2022/09/30 00:58:52;;;;;;;1.95;1.20;;;21.60;53.00;;;;;;5036635;28;20397;-50
2022/09/30 01:01:18;;;;;;;2.97;1.70;;;21.60;53.10;;;;;;5014075;28;20041;-55
2022/09/30 01:03:55;;;;;;;3.05;1.42;;;21.60;53.00;;;;;;5053245;28;20116;-56
2022/09/30 01:06:22;;;;;;;2.50;1.33;;;21.50;53.60;;;;;;5052083;28;20743;-55
2022/09/30 01:08:49;;;;;;;2.67;1.45;;;21.60;53.00;;;;;;5052633;28;20037;-53
2022/09/30 01:11:15;;;;;;;3.15;1.80;;;21.50;52.90;;;;;;5052807;28;20100;-46
2022/09/30 01:13:43;;;;;;;2.25;1.48;;;21.60;53.00;;;;;;5046355;28;20100;-55
2022/09/30 01:16:27;;;;;;;3.50;1.58;;;21.60;53.00;;;;;;5053056;28;20095;-55
2022/09/30 01:19:20;;;;;;;1.65;1.13;;;21.60;53.10;;;;;;5047802;28;20082;-55
2022/09/30 01:22:12;;;;;;;2.72;1.40;;;21.60;53.10;;;;;;5047347;28;20033;-56
2022/09/30 01:24:56;;;;;;;;;;;21.50;52.90;;;;;;5020789;28;20128;-57
2022/09/30 01:27:55;;;;;;;2.30;1.33;;;21.60;53.00;;;;;;5050856;28;19913;-50
2022/09/30 01:30:55;;;;;;;2.30;1.30;;;21.50;53.00;;;;;;5016031;28;20044;-56
2022/09/30 01:33:33;;;;;;;2.50;1.42;;;21.50;52.90;;;;;;5046130;28;20040;-56
2022/09/30 01:36:24;;;;;;;2.15;1.50;;;21.50;52.90;;;;;;5046280;28;20035;-56
2022/09/30 01:39:26;;;;;;;2.35;1.30;;;21.50;52.90;;;;;;5053186;28;20033;-56
2022/09/30 01:41:53;;;;;;;;;;;21.50;52.90;;;;;;5031619;28;20045;-57
2022/09/30 01:44:40;;;;;;;3.15;1.50;;;21.50;52.90;;;;;;5052501;28;19921;-57
2022/09/30 01:47:22;;;;;;;2.28;1.48;;;21.50;52.90;;;;;;5031385;28;20033;-56
2022/09/30 01:50:27;;;;;;;2.65;1.60;;;21.50;52.90;;;;;;5053144;28;20029;-56
2022/09/30 01:52:57;;;;;;;2.95;1.63;;;21.50;52.80;;;;;;5009019;28;20551;-56
2022/09/30 01:55:42;;;;;;;3.33;1.23;;;21.50;52.90;;;;;;5048880;28;20060;-56
2022/09/30 01:58:17;;;;;;;1.35;1.05;;;21.50;52.90;;;;;;5049858;28;20021;-53
2022/09/30 02:00:48;;;;;;;1.52;1.27;;;21.50;52.90;;;;;;5047791;28;20024;-55
2022/09/30 02:03:22;;;;;;;2.00;1.33;;;21.50;52.90;;;;;;5048558;28;20390;-46
2022/09/30 02:06:19;;;;;;;1.67;1.13;;;21.50;52.80;;;;;;5046385;28;20124;-56
2022/09/30 02:09:11;;;;;;;3.25;1.30;;;21.50;52.90;;;;;;5034534;28;20074;-56
2022/09/30 02:11:37;;;;;;;;;;;21.50;52.80;;;;;;5032279;28;20772;-54
2022/09/30 02:14:12;;;;;;;1.75;1.13;;;21.50;52.80;;;;;;5052973;28;19915;-55
2022/09/30 02:16:40;;;;;;;2.83;1.58;;;21.50;52.80;;;;;;5031088;28;20045;-55
2022/09/30 02:19:31;;;;;;;2.35;1.40;;;21.50;52.80;;;;;;5048189;28;20029;-54
2022/09/30 02:22:01;;;;;;;3.85;1.30;;;21.50;52.80;;;;;;5053350;28;20503;-56
2022/09/30 02:24:31;;;;;;;2.40;1.55;;;21.50;52.80;;;;;;5063050;28;20028;-56
2022/09/30 02:27:00;;;;;;;2.95;1.23;;;21.50;52.80;;;;;;5053317;28;20114;-50
2022/09/30 02:29:33;;;;;;;2.53;1.27;;;21.50;52.80;;;;;;5054965;28;20033;-56
2022/09/30 02:32:13;;;;;;;1.33;0.90;;;21.50;52.80;;;;;;5053382;28;20393;-56
2022/09/30 02:34:49;;;;;;;2.47;1.73;;;21.50;52.80;;;;;;5054737;28;20025;-57
2022/09/30 02:37:33;;;;;;;2.30;1.40;;;21.50;52.80;;;;;;5051632;28;20478;-44
2022/09/30 02:40:05;;;;;;;2.97;1.30;;;21.50;52.80;;;;;;5047451;28;20480;-56
2022/09/30 02:42:31;;;;;;;2.58;1.38;;;21.50;52.70;;;;;;5051247;28;20485;-55
2022/09/30 02:45:07;;;;;;;1.75;1.42;;;21.50;52.80;;;;;;5048207;28;20052;-55
2022/09/30 02:48:01;;;;;;;3.47;1.30;;;21.50;52.80;;;;;;5035003;28;20029;-54
2022/09/30 02:51:05;;;;;;;2.47;1.15;;;21.50;52.80;;;;;;5055216;28;20036;-56
2022/09/30 02:53:42;;;;;;;2.45;1.50;;;21.50;52.80;;;;;;4969000;28;20472;-55
2022/09/30 02:56:12;;;;;;;3.47;1.60;;;21.50;52.70;;;;;;5039173;28;20069;-55
2022/09/30 02:58:40;;;;;;;2.17;1.13;;;21.50;52.70;;;;;;5051411;28;20148;-56
2022/09/30 03:01:12;;;;;;;2.42;1.42;;;21.50;52.80;;;;;;5060215;28;20070;-53
2022/09/30 03:03:48;;;;;;;3.28;1.60;;;21.50;52.70;;;;;;5053284;28;20135;-57
2022/09/30 03:06:14;;;;;;;3.75;1.67;;;21.50;52.70;;;;;;5052148;28;20079;-45
2022/09/30 03:08:39;;;;;;;2.45;1.63;;;21.40;52.70;;;;;;5050449;28;20025;-55
2022/09/30 03:11:06;;;;;;;4.00;1.42;;;21.50;52.70;;;;;;5055686;28;20049;-56
2022/09/30 03:13:31;;;;;;;2.22;1.20;;;21.50;52.70;;;;;;5053542;28;20021;-55
2022/09/30 03:16:14;;;;;;;2.92;1.80;;;21.40;52.60;;;;;;5055422;28;20025;-54
2022/09/30 03:18:54;;;;;;;2.88;1.48;;;21.50;52.70;;;;;;5057803;28;20516;-55
2022/09/30 03:21:41;;;;;;;2.45;1.40;;;21.50;52.70;;;;;;5051045;28;20035;-53
2022/09/30 03:24:28;;;;;;;3.65;1.40;;;21.50;53.10;;;;;;5055932;28;20033;-56
2022/09/30 03:27:20;;;;;;;2.20;1.83;;;21.50;53.10;;;;;;5060113;28;20086;-53
2022/09/30 03:30:00;;;;;;;1.75;1.23;;;21.50;53.10;;;;;;5020538;28;20037;-56
2022/09/30 03:32:38;;;;;;;1.90;1.30;;;21.50;53.00;;;;;;5049311;28;20127;-55
2022/09/30 03:35:28;;;;;;;2.35;1.30;;;21.40;52.90;;;;;;5051121;28;20086;-56
2022/09/30 03:38:09;;;;;;;2.50;1.35;;;21.50;52.80;;;;;;5044345;28;20493;-56
2022/09/30 03:41:02;;;;;;;1.88;1.40;;;21.40;52.80;;;;;;5061150;28;20032;-56
2022/09/30 03:43:44;;;;;;;2.50;1.42;;;21.40;52.70;;;;;;5055387;28;20049;-57
2022/09/30 03:46:34;;;;;;;2.75;1.50;;;21.40;52.70;;;;;;5058444;28;20029;-56
2022/09/30 03:49:05;;;;;;;2.88;1.30;;;21.40;52.60;;;;;;5051839;28;20098;-56
2022/09/30 03:51:35;;;;;;;2.95;1.63;;;21.40;52.60;;;;;;5047695;28;20029;-56
2022/09/30 03:54:00;;;;;;;3.70;1.50;;;21.40;52.60;;;;;;5050880;28;20131;-50
2022/09/30 03:56:28;;;;;;;2.22;1.40;;;21.40;52.60;;;;;;5048267;28;20540;-55
2022/09/30 03:58:55;;;;;;;2.30;1.60;;;21.40;52.50;;;;;;5049039;28;20116;-55
2022/09/30 04:01:22;;;;;;;3.65;1.50;;;21.50;52.50;;;;;;5050381;28;20021;-56
2022/09/30 04:03:51;;;;;;;3.75;1.63;;;21.40;52.50;;;;;;5050622;28;20110;-56
2022/09/30 04:06:18;;;;;;;2.35;1.20;;;21.40;52.50;;;;;;5053090;28;20379;-46
2022/09/30 04:08:44;;;;;;;3.10;1.98;;;21.50;52.50;;;;;;5043062;28;20025;-56
2022/09/30 04:11:10;;;;;;;2.38;1.30;;;21.40;52.60;;;;;;5031874;28;20559;-55
2022/09/30 04:13:36;;;;;;;2.58;1.67;;;21.40;52.60;;;;;;5059316;28;20044;-55
2022/09/30 04:16:02;;;;;;;2.15;1.40;;;21.40;52.50;;;;;;5048475;28;20037;-56
2022/09/30 04:18:31;;;;;;;7.65;2.00;;;21.40;52.50;;;;;;5048235;28;20017;-55
2022/09/30 04:20:58;;;;;;;2.50;1.60;;;21.40;52.60;;;;;;5051443;28;20091;-54
2022/09/30 04:23:24;;;;;;;2.45;1.52;;;21.40;52.60;;;;;;5049679;28;20036;-55
2022/09/30 04:25:53;;;;;;;3.50;2.35;;;21.40;52.60;;;;;;5052094;28;20033;-56
2022/09/30 04:28:20;;;;;;;2.80;1.63;;;21.50;52.70;;;;;;5056842;28;20029;-54
2022/09/30 04:30:45;;;;;;;3.55;1.70;;;21.40;52.60;;;;;;5052222;28;20029;-56
2022/09/30 04:33:11;;;;;;;4.30;1.58;;;21.40;52.60;;;;;;5060138;28;20035;-55
2022/09/30 04:35:38;;;;;;;2.75;1.95;;;21.40;52.70;;;;;;5064420;28;20036;-55
2022/09/30 04:38:06;;;;;;;2.08;1.50;;;21.40;52.60;;;;;;5054728;28;20029;-56
2022/09/30 04:40:35;;;;;;;4.85;1.33;;;21.40;52.60;;;;;;5053544;28;20079;-56
2022/09/30 04:43:00;;;;;;;3.65;1.60;;;21.40;52.60;;;;;;5061654;28;20082;-56
2022/09/30 04:45:26;;;;;;;3.30;1.45;;;21.40;52.60;;;;;;5065350;28;20063;-56
2022/09/30 04:47:52;;;;;;;3.65;1.48;;;21.40;52.60;;;;;;5065486;28;20025;-56
2022/09/30 04:50:18;;;;;;;2.70;1.27;;;21.40;52.60;;;;;;5052805;28;20091;-56
2022/09/30 04:52:43;;;;;;;3.40;1.38;;;21.40;52.50;;;;;;5053322;28;20033;-57
2022/09/30 04:55:10;;;;;;;2.20;1.30;;;21.40;52.50;;;;;;5054762;28;20150;-58
2022/09/30 04:57:36;;;;;;;1.65;1.17;;;21.40;52.50;;;;;;5054886;28;20028;-56
2022/09/30 05:00:03;;;;;;;4.32;2.03;;;21.40;52.50;;;;;;5066278;28;20028;-55
2022/09/30 05:02:29;;;;;;;4.00;1.70;;;21.40;52.40;;;;;;5063878;28;20041;-56
2022/09/30 05:04:54;;;;;;;4.30;1.88;;;21.40;52.40;;;;;;5054428;28;20029;-55
2022/09/30 05:07:21;;;;;;;6.00;1.70;;;21.40;52.40;;;;;;5053497;28;20021;-56
2022/09/30 05:09:46;;;;;;;2.60;1.65;;;21.40;52.40;;;;;;5053720;28;20370;-56
2022/09/30 05:12:13;;;;;;;2.63;1.25;;;21.40;52.40;;;;;;5058496;28;20028;-55
2022/09/30 05:14:39;;;;;;;2.20;1.85;;;21.40;52.50;;;;;;5065706;28;20115;-56
2022/09/30 05:17:05;;;;;;;3.72;1.70;;;21.40;52.50;;;;;;5062198;28;20111;-56
2022/09/30 05:19:30;;;;;;;2.20;1.65;;;21.40;52.40;;;;;;5047847;28;20024;-55
2022/09/30 05:21:56;;;;;;;2.13;1.55;;;21.40;52.30;;;;;;5054159;28;20100;-55
2022/09/30 05:24:21;;;;;;;1.95;1.10;;;21.40;52.30;;;;;;5053963;28;20112;-56
2022/09/30 05:26:47;;;;;;;3.60;1.13;;;21.40;52.30;;;;;;5065023;28;20028;-55
2022/09/30 05:29:12;;;;;;;2.15;1.20;;;21.30;52.30;;;;;;5054232;28;20033;-45
2022/09/30 05:31:38;;;;;;;2.25;1.90;;;21.40;52.40;;;;;;5053691;28;20043;-54
2022/09/30 05:34:04;;;;;;;2.08;1.13;;;21.40;52.40;;;;;;5054392;28;20433;-56
2022/09/30 05:36:29;;;;;;;3.83;1.58;;;21.40;52.60;;;;;;5052443;28;20029;-53
2022/09/30 05:38:55;;;;;;;4.15;1.48;;;21.40;53.00;;;;;;5060099;28;20036;-50
2022/09/30 05:41:21;;;;;;;3.25;1.40;;;21.50;53.10;;;;;;5053780;28;20104;-52
2022/09/30 05:43:48;;;;;;;3.90;2.20;;;21.50;53.20;;;;;;5053217;28;20049;-55
2022/09/30 05:46:15;;;;;;;2.40;1.50;;;21.50;53.30;;;;;;5056518;28;20474;-45
2022/09/30 05:48:41;;;;;;;2.90;1.52;;;21.50;53.30;;;;;;5052829;28;20025;-51
2022/09/30 05:51:06;;;;;;;5.65;1.67;;;21.50;53.40;;;;;;5057952;28;20040;-56
2022/09/30 05:53:37;;;;;;;4.18;1.45;;;21.50;53.50;;;;;;5059105;28;20179;-54
2022/09/30 05:56:03;;;;;;;1.80;1.30;;;21.50;53.60;;;;;;5056633;28;20135;-56
2022/09/30 05:58:30;;;;;;;3.92;1.92;;;21.50;53.60;;;;;;5057276;28;20041;-57
2022/09/30 06:00:55;;;;;;;6.43;3.13;;;21.50;52.80;;;;;;5065529;28;20366;-56
2022/09/30 06:03:21;;;;;;;6.32;3.90;;;21.40;49.20;;;;;;5057904;28;20040;-56
2022/09/30 06:05:47;;;;;;;6.93;3.60;;;21.30;47.20;;;;;;5054112;28;20071;-56
2022/09/30 06:08:13;;;;;;;5.10;3.13;;;21.30;46.70;;;;;;5052565;28;20025;-46
2022/09/30 06:10:41;;;;;;;8.70;3.92;;;21.30;46.30;;;;;;5053155;28;20028;-57
2022/09/30 06:13:07;;;;;;;5.72;3.83;;;21.30;46.20;;;;;;5053288;28;20051;-56
2022/09/30 06:15:35;;;;;;;5.55;3.40;;;21.30;46.80;;;;;;5052799;28;20722;-56
2022/09/30 06:18:00;;;;;;;9.20;3.72;;;21.20;48.30;;;;;;5054769;28;20489;-56
2022/09/30 06:20:26;;;;;;;6.38;3.70;;;21.10;49.20;;;;;;5051856;28;20061;-56
2022/09/30 06:22:52;;;;;;;5.05;3.47;;;21.10;49.30;;;;;;5062059;28;20040;-56
2022/09/30 06:25:17;;;;;;;6.15;3.80;;;21.20;48.90;;;;;;5051057;28;20116;-56
2022/09/30 06:27:45;;;;;;;7.28;3.95;;;21.20;48.00;;;;;;5052737;28;20025;-56
2022/09/30 06:30:11;;;;;;;7.07;3.80;;;21.20;47.80;;;;;;5054050;28;20107;-57
2022/09/30 06:32:37;;;;;;;4.35;3.17;;;21.30;47.90;;;;;;5069061;28;20037;-57
2022/09/30 06:35:03;;;;;;;5.18;3.03;;;21.30;47.90;;;;;;5052019;28;20029;-57
2022/09/30 06:37:28;;;;;;;5.70;3.95;;;21.30;47.60;;;;;;5062070;28;20412;-56
2022/09/30 06:39:54;;;;;;;5.82;3.90;;;21.20;47.30;;;;;;5058335;28;20070;-57
2022/09/30 06:42:22;;;;;;;5.60;3.78;;;21.30;47.20;;;;;;5064652;28;20028;-57
2022/09/30 06:44:47;;;;;;;5.22;3.35;;;21.30;47.20;;;;;;5046823;28;20491;-57
2022/09/30 06:47:13;;;;;;;6.32;3.85;;;21.30;47.10;;;;;;5061527;28;20089;-46
2022/09/30 06:49:39;;;;;;;5.93;3.95;;;21.20;47.20;;;;;;5058294;28;20369;-56
2022/09/30 06:52:05;;;;;;;5.38;3.67;;;21.30;47.20;;;;;;5057010;28;20099;-57
2022/09/30 06:54:31;;;;;;;5.50;3.45;;;21.20;47.10;;;;;;5050764;28;20112;-56
2022/09/30 06:56:56;;;;;;;5.30;3.00;;;21.30;47.20;;;;;;5053326;28;20421;-57
2022/09/30 06:59:23;;;;;;;8.07;3.60;;;21.20;47.10;;;;;;5052456;28;20091;-57
2022/09/30 07:01:49;;;;;;;6.80;4.25;;;21.20;47.10;;;;;;5056311;28;20039;-57
2022/09/30 07:04:15;;;;;;;12.38;4.00;;;21.30;47.10;;;;;;5059278;28;20116;-45
2022/09/30 07:06:41;;;;;;;6.28;4.07;;;21.20;47.10;;;;;;5058941;28;20082;-57
2022/09/30 07:09:07;;;;;;;4.07;3.38;;;21.20;47.10;;;;;;5055470;28;20028;-57
2022/09/30 07:11:33;;;;;;;4.53;3.72;;;21.20;47.10;;;;;;5060186;28;20488;-56
2022/09/30 07:13:59;;;;;;;9.45;4.38;;;21.20;47.10;;;;;;5057580;28;20033;-57
2022/09/30 07:16:24;;;;;;;5.82;3.85;;;21.20;47.10;;;;;;5068819;28;20040;-57
2022/09/30 07:18:50;;;;;;;5.60;3.78;;;21.20;47.10;;;;;;5053967;28;20029;-57
2022/09/30 07:21:17;;;;;;;5.75;3.30;;;21.20;47.20;;;;;;5050862;28;20032;-46
2022/09/30 07:23:47;;;;;;;6.97;3.55;;;21.20;47.30;;;;;;5049637;28;20048;-54
2022/09/30 07:26:15;;;;;;;6.03;3.45;;;21.20;47.40;;;;;;5055886;28;20024;-48
2022/09/30 07:28:42;;;;;;;5.45;3.95;;;21.20;47.40;;;;;;5053969;28;20055;-57
2022/09/30 07:31:16;;;;;;;4.78;3.40;;;21.20;47.40;;;;;;5057682;28;20021;-57
2022/09/30 07:33:43;;;;;;;6.93;3.92;;;21.20;47.40;;;;;;5057987;28;20025;-57
2022/09/30 07:36:11;;;;;;;5.65;3.95;;;21.20;47.50;;;;;;5062748;28;20060;-57
2022/09/30 07:38:41;;;;;;;6.05;4.10;;;21.20;47.50;;;;;;5061942;28;20114;-56
2022/09/30 07:41:13;;;;;;;5.55;3.50;;;21.20;47.70;;;;;;5047064;28;20052;-57
2022/09/30 07:43:41;;;;;;;;;;;21.20;47.70;;;;;;5055393;28;20064;-56
2022/09/30 07:46:16;;;;;;;5.38;3.40;;;21.20;47.80;;;;;;5052144;28;19944;-57
2022/09/30 07:51:31;;;;;;;3.97;3.13;;;21.20;48.00;;;;;;5050987;28;20083;-57
2022/09/30 07:54:01;;;;;;;4.70;3.50;;;21.20;48.10;;;;;;5050420;28;20033;-57
2022/09/30 07:56:27;;;;;;;4.00;3.03;;;21.10;48.10;;;;;;5051000;28;20025;-57
2022/09/30 07:58:54;;;;;;;3.53;3.00;;;21.20;48.30;;;;;;5051492;28;20594;-56
2022/09/30 08:01:20;;;;;;;5.28;4.15;;;21.10;48.90;;;;;;5050798;28;20044;-57
2022/09/30 08:03:45;;;;;;;6.55;4.13;;;21.10;48.20;;;;;;5053485;28;20068;-57
2022/09/30 08:06:15;;;;;;;6.05;4.15;;;21.10;48.20;;;;;;5055262;28;20047;-57
2022/09/30 08:08:42;;;;;;;4.88;3.25;;;21.20;48.40;;;;;;5060654;28;20078;-56
2022/09/30 08:11:09;;;;;;;6.80;3.90;;;21.10;48.30;;;;;;5055320;28;20056;-57
2022/09/30 08:13:37;;;;;;;6.55;3.83;;;21.20;48.30;;;;;;5054594;28;20608;-57
2022/09/30 08:16:02;;;;;;;10.30;4.03;;;21.20;48.40;;;;;;5033320;28;20047;-57
2022/09/30 08:18:29;;;;;;;7.88;3.92;;;21.10;48.40;;;;;;5058137;28;20542;-58
2022/09/30 08:20:55;;;;;;;6.88;3.80;;;21.10;48.30;;;;;;5056060;28;20036;-57
2022/09/30 08:23:21;;;;;;;7.13;4.35;;;21.10;48.40;;;;;;5036257;28;20355;-56
2022/09/30 08:25:49;;;;;;;6.43;4.00;;;21.10;48.50;;;;;;5059252;28;20032;-58
2022/09/30 08:28:17;;;;;;;8.80;4.45;;;21.10;48.50;;;;;;5058673;28;20025;-45
2022/09/30 08:30:45;;;;;;;10.18;3.88;;;21.10;48.60;;;;;;5063201;28;20493;-57
2022/09/30 08:33:11;;;;;;;6.13;3.80;;;21.10;48.50;;;;;;5055212;28;20501;-57
2022/09/30 08:35:36;;;;;;;5.93;4.40;;;21.10;48.60;;;;;;5062037;28;20072;-57
2022/09/30 08:38:05;;;;;;;6.45;4.28;;;21.10;48.60;;;;;;5054414;28;20078;-57
2022/09/30 08:40:34;;;;;;;6.30;4.15;;;21.10;48.60;;;;;;5053475;28;20381;-56
2022/09/30 08:43:26;;;;;;;7.75;4.03;;;21.10;48.50;;;;;;5054274;28;20140;-57
2022/09/30 08:46:03;;;;;;;5.17;4.03;;;21.10;48.50;;;;;;5060690;28;20055;-57
2022/09/30 08:48:50;;;;;;;5.38;3.80;;;21.10;48.50;;;;;;5061638;28;20037;-57
2022/09/30 08:51:36;;;;;;;5.63;4.25;;;21.10;48.50;;;;;;5056068;28;20029;-46
2022/09/30 08:54:08;;;;;;;5.90;4.35;;;21.00;48.50;;;;;;5054120;28;20029;-57
2022/09/30 08:56:35;;;;;;;7.97;3.85;;;21.00;48.40;;;;;;5053680;28;20634;-57
2022/09/30 08:59:22;;;;;;;7.15;5.28;;;21.00;48.40;;;;;;5060674;28;20418;-57
2022/09/30 09:01:52;;;;;;;7.47;4.68;;;21.00;48.40;;;;;;5041672;28;20053;-57
2022/09/30 09:04:18;;;;;;;6.35;4.13;;;21.00;48.70;;;;;;5053221;28;20033;-56
2022/09/30 09:06:51;;;;;;;6.00;4.10;;;21.00;48.60;;;;;;5054326;28;20029;-57
2022/09/30 09:09:33;;;;;;;5.88;4.30;;;21.00;48.60;;;;;;5053124;28;20032;-52
2022/09/30 09:12:27;;;;;;;9.25;5.03;;;21.00;48.60;;;;;;5054268;28;20036;-58
2022/09/30 09:15:14;;;;;;;13.38;5.50;;;21.00;48.30;;;;;;5053731;28;20489;-58
2022/09/30 09:17:39;;;;;;;9.35;5.82;;;21.00;48.30;;;;;;5052271;28;20025;-57
2022/09/30 09:20:13;;;;;;;11.32;5.85;;;21.00;48.90;;;;;;5053857;28;20038;-56
2022/09/30 09:22:39;;;;;;;9.02;5.72;;;21.00;48.30;;;;;;5053487;28;20032;-54
2022/09/30 09:25:09;;;;;;;12.38;6.18;;;21.00;48.20;;;;;;5053301;28;20037;-57
2022/09/30 09:27:54;;;;;;;8.48;5.20;;;21.00;48.20;;;;;;5053662;28;20029;-58
2022/09/30 09:30:22;;;;;;;9.68;6.03;;;21.00;48.20;;;;;;5052752;28;20025;-56
2022/09/30 09:32:54;;;;;;;10.30;5.93;;;21.00;48.40;;;;;;5054102;28;20029;-57
2022/09/30 09:35:41;;;;;;;10.52;5.55;;;21.00;48.40;;;;;;5052383;28;20029;-56
2022/09/30 09:38:34;;;;;;;9.13;6.00;;;20.90;48.40;;;;;;5053955;28;20466;-58
2022/09/30 09:41:38;;;;;;;8.63;5.28;;;20.90;48.50;;;;;;5054139;28;20104;-58
2022/09/30 09:44:29;;;;;;;10.93;6.18;;;20.90;48.50;;;;;;5052343;28;20163;-59
2022/09/30 09:47:12;;;;;;;10.38;5.00;;;20.90;48.60;;;;;;5051528;28;20373;-57
2022/09/30 09:49:42;;;;;;;10.88;5.68;;;20.90;48.60;;;;;;5053027;28;20013;-58
2022/09/30 09:52:39;;;;;;;12.73;5.93;;;20.90;48.60;;;;;;5052553;28;20079;-57
2022/09/30 09:55:05;;;;;;;13.50;5.95;;;20.90;48.60;;;;;;5052546;28;20025;-57
2022/09/30 09:57:31;;;;;;;8.60;4.70;;;20.90;48.50;;;;;;5052374;28;20469;-58
2022/09/30 09:59:58;;;;;;;5.90;4.70;;;20.90;48.50;;;;;;5052909;28;20036;-58
2022/09/30 10:02:30;;;;;;;5.78;4.20;;;20.90;48.50;;;;;;5052644;28;20055;-57
2022/09/30 10:05:01;;;;;;;8.32;4.93;;;20.90;48.60;;;;;;5053031;28;20032;-58
2022/09/30 10:07:29;;;;;;;5.80;4.35;;;20.90;48.60;;;;;;5052504;28;20082;-56
2022/09/30 10:10:13;;;;;;;5.60;4.15;;;20.90;48.60;;;;;;5052860;28;20086;-57
2022/09/30 10:12:40;;;;;;;8.10;4.90;;;20.90;48.50;;;;;;5053039;28;20033;-57
2022/09/30 10:15:22;;;;;;;8.55;4.07;;;20.90;48.50;;;;;;5043484;28;20036;-57
2022/09/30 10:17:56;;;;;;;10.23;4.90;;;20.90;48.30;;;;;;5053298;28;20036;-57
2022/09/30 10:20:36;;;;;;;12.50;4.00;;;20.90;48.30;;;;;;5051780;28;20474;-57
2022/09/30 10:23:08;;;;;;;9.88;4.65;;;20.90;48.40;;;;;;5052739;28;20065;-57
2022/09/30 10:25:34;;;;;;;10.65;5.07;;;20.90;48.40;;;;;;5051543;28;20044;-58
2022/09/30 10:28:03;;;;;;;6.45;3.97;;;20.90;48.40;;;;;;5052695;28;20120;-57
2022/09/30 10:30:37;;;;;;;7.03;3.35;;;20.90;48.40;;;;;;5051344;28;20094;-57
2022/09/30 10:33:10;;;;;;;5.78;3.50;;;20.90;48.30;;;;;;5052622;28;20021;-57
2022/09/30 10:35:51;;;;;;;7.38;3.78;;;20.90;48.20;;;;;;5051502;28;20034;-57
2022/09/30 10:38:16;;;;;;;6.53;3.40;;;20.90;48.50;;;;;;5051950;28;20036;-47
2022/09/30 10:40:49;;;;;;;4.72;3.45;;;20.90;48.50;;;;;;5052169;28;20029;-58
2022/09/30 10:43:37;;;;;;;5.05;3.42;;;20.90;48.50;;;;;;5028442;28;20406;-46
2022/09/30 10:46:03;;;;;;;5.25;3.15;;;20.90;48.70;;;;;;5032445;28;20029;-57
2022/09/30 10:48:35;;;;;;;8.75;3.58;;;20.90;48.30;;;;;;5031409;28;20025;-57
2022/09/30 10:51:01;;;;;;;7.50;3.53;;;20.90;48.30;;;;;;5032149;28;20021;-58
2022/09/30 10:53:29;;;;;;;4.55;2.83;;;20.90;48.40;;;;;;5031076;28;20113;-57
2022/09/30 10:55:56;;;;;;;3.97;2.15;;;20.90;47.60;;;;;;5032502;28;20025;-56
2022/09/30 10:58:43;;;;;;;4.88;2.03;;;20.90;46.50;;;;;;5031444;28;20382;-56
2022/09/30 11:01:24;;;;;;;2.00;1.40;;;20.90;46.60;;;;;;5032403;28;20100;-57
2022/09/30 11:04:27;;;;;;;4.05;2.00;;;20.90;46.30;;;;;;5031860;28;20488;-56
2022/09/30 11:07:07;;;;;;;3.03;1.95;;;20.90;46.00;;;;;;5032438;28;20030;-58
2022/09/30 11:09:43;;;;;;;5.15;1.80;;;20.90;46.30;;;;;;5031033;28;20036;-57
2022/09/30 11:12:46;;;;;;;4.18;1.98;;;20.90;45.60;;;;;;5032118;28;20033;-58
2022/09/30 11:15:27;;;;;;;3.17;1.48;;;20.90;45.30;;;;;;5024600;28;20032;-57
2022/09/30 11:18:11;;;;;;;2.40;1.50;;;20.90;45.40;;;;;;5031070;28;20397;-57
2022/09/30 11:20:44;;;;;;;1.95;1.42;;;20.90;45.40;;;;;;5030922;28;20035;-58
2022/09/30 11:23:19;;;;;;;2.58;1.30;;;20.90;45.20;;;;;;5032051;28;20029;-58
2022/09/30 11:26:02;;;;;;;3.30;1.92;;;20.90;45.30;;;;;;5031796;28;20087;-58
2022/09/30 11:29:18;;;;;;;2.33;1.40;;;20.90;45.10;;;;;;5030780;28;20029;-56
2022/09/30 11:31:53;;;;;;;3.47;1.25;;;20.90;45.20;;;;;;4990187;28;20478;-58
2022/09/30 11:34:37;;;;;;;3.03;1.70;;;20.90;45.10;;;;;;5030576;28;20057;-57
2022/09/30 11:37:19;;;;;;;3.28;1.50;;;20.90;45.20;;;;;;5032331;28;20028;-57
2022/09/30 11:39:54;;;;;;;3.95;2.40;;;20.90;45.10;;;;;;5031296;28;20060;-58
2022/09/30 11:42:54;;;;;;;3.05;1.20;;;20.90;45.00;;;;;;5030784;28;20029;-57
2022/09/30 11:45:35;;;;;;;3.53;1.55;;;20.90;44.80;;;;;;5030396;28;20051;-57
2022/09/30 11:48:54;;;;;;;2.22;1.52;;;20.90;45.30;;;;;;5031963;28;20026;-59
2022/09/30 11:51:41;;;;;;;3.05;1.60;;;20.90;45.80;;;;;;4931660;29;20035;-57
2022/09/30 11:54:10;;;;;;;4.00;1.48;;;20.90;45.90;;;;;;5028309;28;20486;-58
2022/09/30 11:56:41;;;;;;;2.80;1.20;;;20.90;46.00;;;;;;5031364;28;20025;-58
2022/09/30 11:59:34;;;;;;;1.98;1.27;;;20.90;46.80;;;;;;5030958;28;20022;-57
2022/09/30 12:02:03;;;;;;;4.65;1.70;;;20.80;46.80;;;;;;5031882;28;20040;-58
2022/09/30 12:04:41;;;;;;;2.17;1.40;;;20.80;46.40;;;;;;5030450;28;20132;-58
2022/09/30 12:07:16;;;;;;;3.05;1.13;;;20.80;46.80;;;;;;5031516;28;20352;-57
2022/09/30 12:09:47;;;;;;;3.95;1.25;;;20.80;46.40;;;;;;5031317;28;20032;-58
2022/09/30 12:12:16;;;;;;;2.90;1.55;;;20.90;47.10;;;;;;5031564;28;20028;-52
2022/09/30 12:14:50;;;;;;;6.97;1.50;;;20.90;47.80;;;;;;5024583;28;20054;-58
2022/09/30 12:17:44;;;;;;;3.70;1.77;;;21.10;47.70;;;;;;5018146;28;20107;-57
2022/09/30 12:20:17;;;;;;;8.85;2.15;;;21.10;44.20;;;;;;5031338;28;20030;-57
2022/09/30 12:22:48;;;;;;;5.03;1.90;;;21.10;43.60;;;;;;5031357;28;20080;-58
2022/09/30 12:25:25;;;;;;;6.30;1.80;;;21.20;44.00;;;;;;5030528;28;20386;-46
2022/09/30 12:27:56;;;;;;;6.15;2.00;;;21.20;44.00;;;;;;5031398;28;20109;-56
2022/09/30 12:30:23;;;;;;;12.60;1.67;;;21.10;43.80;;;;;;5030240;28;20482;-58
2022/09/30 12:33:09;;;;;;;18.27;2.60;;;21.00;44.80;;;;;;5031847;28;20033;-56
2022/09/30 12:36:06;;;;;;;10.90;1.50;;;20.90;46.80;;;;;;5030000;28;20025;-57
2022/09/30 12:38:50;;;;;;;5.38;1.70;;;21.00;45.20;;;;;;5030438;28;20163;-56
2022/09/30 12:41:18;;;;;;;2.30;1.23;;;20.90;44.90;;;;;;5030902;28;20033;-47
2022/09/30 12:44:05;;;;;;;1.67;1.05;;;20.90;45.90;;;;;;5038760;28;20132;-57
2022/09/30 12:46:59;;;;;;;1.65;1.02;;;20.90;47.20;;;;;;5048776;28;20481;-58
2022/09/30 12:49:27;;;;;;;3.15;1.05;;;20.80;48.90;;;;;;5049863;28;20036;-58
2022/09/30 12:51:56;;;;;;;4.47;1.08;;;20.80;45.40;;;;;;5051741;28;20040;-58
2022/09/30 12:54:37;;;;;;;5.32;1.33;;;20.80;44.00;;;;;;5053201;28;20032;-57
2022/09/30 12:57:08;;;;;;;1.67;0.98;;;20.80;42.90;;;;;;5054723;28;20033;-58
2022/09/30 12:59:36;;;;;;;1.52;0.85;;;20.80;42.30;;;;;;5053203;28;20040;-58
2022/09/30 13:02:05;;;;;;;1.88;1.23;;;20.80;42.00;;;;;;5054246;28;20025;-57
2022/09/30 13:04:35;;;;;;;1.98;0.90;;;20.70;42.00;;;;;;5052970;28;20029;-58
2022/09/30 13:07:00;;;;;;;3.85;0.82;;;20.80;42.00;;;;;;5054285;28;20102;-58
2022/09/30 13:09:30;;;;;;;2.83;1.15;;;20.70;42.30;;;;;;5053296;28;20454;-57
2022/09/30 13:11:58;;;;;;;4.75;0.90;;;20.70;42.70;;;;;;5054047;28;20039;-58
2022/09/30 13:14:36;;;;;;;4.68;1.25;;;20.80;42.60;;;;;;5049228;28;20036;-57
2022/09/30 13:17:09;;;;;;;1.58;1.13;;;20.80;42.60;;;;;;5052706;28;20061;-57
2022/09/30 13:19:50;;;;;;;2.67;0.98;;;20.70;42.10;;;;;;5053321;28;20037;-59
2022/09/30 13:22:28;;;;;;;4.40;0.90;;;20.80;42.00;;;;;;5053907;28;20040;-48